createdAt,value
2019-04-01T00:02:23.988Z,17.90
2019-04-01T00:05:12.631Z,19.05
2019-04-01T00:08:03.133Z,19.20
2019-04-01T00:10:51.942Z,19.00
2019-04-01T00:13:40.817Z,18.27
2019-04-01T00:16:29.809Z,20.27
2019-04-01T00:19:18.849Z,19.80
2019-04-01T00:22:07.941Z,18.40
2019-04-01T00:24:56.874Z,19.52
2019-04-01T00:27:45.337Z,18.37
2019-04-01T00:30:34.078Z,20.20
2019-04-01T00:33:23.005Z,19.70
2019-04-01T00:36:11.978Z,20.12
2019-04-01T00:39:01.236Z,19.70
2019-04-01T00:42:05.684Z,20.20
2019-04-01T00:44:53.849Z,20.63
2019-04-01T00:47:41.977Z,20.05
2019-04-01T00:50:30.810Z,19.27
2019-04-01T00:53:19.653Z,19.93
2019-04-01T00:56:07.810Z,20.15
2019-04-01T00:58:56.513Z,20.82
2019-04-01T01:01:44.757Z,19.80
2019-04-01T01:04:34.041Z,20.23
2019-04-01T01:07:22.488Z,20.90
2019-04-01T01:10:11.383Z,19.70
2019-04-01T01:12:59.741Z,20.17
2019-04-01T01:15:48.823Z,20.20
2019-04-01T01:18:37.971Z,21.40
2019-04-01T01:21:26.531Z,21.93
2019-04-01T01:24:15.231Z,21.17
2019-04-01T01:27:04.114Z,20.12
2019-04-01T01:29:52.831Z,21.45
2019-04-01T01:32:41.957Z,20.60
2019-04-01T01:35:30.449Z,21.60
2019-04-01T01:38:18.559Z,21.70
2019-04-01T01:41:07.436Z,21.52
2019-04-01T01:43:56.327Z,22.90
2019-04-01T01:46:45.189Z,22.37
2019-04-01T01:49:33.601Z,21.12
2019-04-01T01:52:21.769Z,21.20
2019-04-01T01:55:10.731Z,22.85
2019-04-01T01:57:58.865Z,20.70
2019-04-01T02:00:47.818Z,22.87
2019-04-01T02:03:36.049Z,22.27
2019-04-01T02:06:24.738Z,22.02
2019-04-01T02:09:13.000Z,24.07
2019-04-01T02:12:02.332Z,22.00
2019-04-01T02:14:50.660Z,23.92
2019-04-01T02:17:39.439Z,23.62
2019-04-01T02:20:28.035Z,22.95
2019-04-01T02:23:17.106Z,23.57
2019-04-01T02:26:05.803Z,23.90
2019-04-01T02:28:54.716Z,24.50
2019-04-01T02:31:43.407Z,24.23
2019-04-01T02:34:32.336Z,24.00
2019-04-01T02:37:20.691Z,25.85
2019-04-01T02:40:10.013Z,24.77
2019-04-01T02:42:58.839Z,25.72
2019-04-01T02:45:47.447Z,24.95
2019-04-01T02:48:36.375Z,25.37
2019-04-01T02:51:25.265Z,25.48
2019-04-01T02:54:14.344Z,28.50
2019-04-01T02:57:03.324Z,27.40
2019-04-01T02:59:51.576Z,28.77
2019-04-01T03:02:39.879Z,26.20
2019-04-01T03:05:28.202Z,26.45
2019-04-01T03:08:16.559Z,27.67
2019-04-01T03:11:09.912Z,27.45
2019-04-01T03:13:55.688Z,29.32
2019-04-01T03:16:44.307Z,28.47
2019-04-01T03:19:33.520Z,29.02
2019-04-01T03:22:22.498Z,28.00
2019-04-01T03:25:10.958Z,31.62
2019-04-01T03:27:59.406Z,30.55
2019-04-01T03:30:47.885Z,29.30
2019-04-01T03:33:36.482Z,32.20
2019-04-01T03:36:26.627Z,29.90
2019-04-01T03:39:15.377Z,29.30
2019-04-01T03:42:04.286Z,30.37
2019-04-01T03:44:55.256Z,30.45
2019-04-01T03:47:43.151Z,33.40
2019-04-01T03:50:31.668Z,31.33
2019-04-01T03:53:20.193Z,30.57
2019-04-01T03:56:08.514Z,31.15
2019-04-01T03:58:56.672Z,30.30
2019-04-01T04:01:45.652Z,29.82
2019-04-01T04:04:34.198Z,31.12
2019-04-01T04:07:23.248Z,31.73
2019-04-01T04:10:12.079Z,33.10
2019-04-01T04:13:01.040Z,31.75
2019-04-01T04:15:49.613Z,33.98
2019-04-01T04:18:38.364Z,32.60
2019-04-01T04:21:26.585Z,33.92
2019-04-01T04:24:15.434Z,33.67
2019-04-01T04:27:03.978Z,34.20
2019-04-01T04:29:52.786Z,33.85
2019-04-01T04:32:41.333Z,33.78
2019-04-01T04:35:30.457Z,35.55
2019-04-01T04:38:19.365Z,34.33
2019-04-01T04:41:07.908Z,33.90
2019-04-01T04:43:56.686Z,34.90
2019-04-01T04:46:44.875Z,34.40
2019-04-01T04:49:33.686Z,33.63
2019-04-01T04:52:22.321Z,33.60
2019-04-01T04:55:11.152Z,33.48
2019-04-01T04:58:00.032Z,34.48
2019-04-01T05:00:48.964Z,33.60
2019-04-01T05:03:37.982Z,33.65
2019-04-01T05:06:26.421Z,34.70
2019-04-01T05:09:15.301Z,33.23
2019-04-01T05:12:03.940Z,33.00
2019-04-01T05:14:52.656Z,34.03
2019-04-01T05:17:41.612Z,33.18
2019-04-01T05:20:31.638Z,33.45
2019-04-01T05:23:19.882Z,34.47
2019-04-01T05:26:09.596Z,34.05
2019-04-01T05:29:00.428Z,33.73
2019-04-01T05:31:50.179Z,34.75
2019-04-01T05:34:41.863Z,34.15
2019-04-01T05:37:30.056Z,33.08
2019-04-01T05:40:19.303Z,33.78
2019-04-01T05:43:07.384Z,35.52
2019-04-01T05:45:55.432Z,34.25
2019-04-01T05:48:44.387Z,35.80
2019-04-01T05:51:33.625Z,33.95
2019-04-01T05:54:22.476Z,34.40
2019-04-01T05:57:11.664Z,33.55
2019-04-01T06:00:01.352Z,33.08
2019-04-01T06:02:49.903Z,35.60
2019-04-01T06:05:38.784Z,32.00
2019-04-01T06:08:27.620Z,33.20
2019-04-01T06:11:17.638Z,30.50
2019-04-01T06:14:06.674Z,33.05
2019-04-01T06:16:55.734Z,34.20
2019-04-01T06:19:44.987Z,32.48
2019-04-01T06:22:33.545Z,32.50
2019-04-01T06:25:22.689Z,34.20
2019-04-01T06:28:11.264Z,32.42
2019-04-01T06:31:00.006Z,33.50
2019-04-01T06:33:49.096Z,31.93
2019-04-01T06:36:38.944Z,33.13
2019-04-01T06:39:27.667Z,32.57
2019-04-01T06:42:15.964Z,32.70
2019-04-01T06:45:05.152Z,32.70
2019-04-01T06:47:53.661Z,29.50
2019-04-01T06:50:41.993Z,30.77
2019-04-01T06:53:31.411Z,30.68
2019-04-01T06:56:20.321Z,32.10
2019-04-01T06:59:08.462Z,29.45
2019-04-01T07:01:56.900Z,30.60
2019-04-01T07:04:45.805Z,30.55
2019-04-01T07:07:35.001Z,31.20
2019-04-01T07:10:25.029Z,33.25
2019-04-01T07:13:14.241Z,30.05
2019-04-01T07:16:14.624Z,30.55
2019-04-01T07:18:53.495Z,32.03
2019-04-01T07:21:43.329Z,37.78
2019-04-01T07:24:32.566Z,37.75
2019-04-01T07:27:21.614Z,38.10
2019-04-01T07:30:12.121Z,37.35
2019-04-01T07:33:00.847Z,38.80
2019-04-01T07:35:49.753Z,38.60
2019-04-01T07:38:38.851Z,37.42
2019-04-01T07:41:27.603Z,37.65
2019-04-01T07:44:16.849Z,37.75
2019-04-01T07:47:05.402Z,38.55
2019-04-01T07:49:53.999Z,38.30
2019-04-01T07:52:42.752Z,38.50
2019-04-01T07:55:31.906Z,38.20
2019-04-01T07:58:20.330Z,37.58
2019-04-01T08:01:09.386Z,37.08
2019-04-01T08:03:57.720Z,38.20
2019-04-01T08:06:46.182Z,37.25
2019-04-01T08:09:35.180Z,37.60
2019-04-01T08:12:27.676Z,37.78
2019-04-01T08:15:13.921Z,36.53
2019-04-01T08:18:02.756Z,37.35
2019-04-01T08:20:50.916Z,38.90
2019-04-01T08:23:39.927Z,37.97
2019-04-01T08:26:29.409Z,36.80
2019-04-01T08:29:29.368Z,38.58
2019-04-01T08:32:08.716Z,37.13
2019-04-01T08:34:57.669Z,37.23
2019-04-01T08:37:46.988Z,36.08
2019-04-01T08:40:35.774Z,38.00
2019-04-01T08:43:24.705Z,37.40
2019-04-01T08:46:13.593Z,37.13
2019-04-01T08:49:02.050Z,37.48
2019-04-01T08:51:51.528Z,36.05
2019-04-01T08:54:40.676Z,36.53
2019-04-01T08:57:29.763Z,37.13
2019-04-01T09:00:18.971Z,37.97
2019-04-01T09:03:07.439Z,34.90
2019-04-01T09:05:56.504Z,36.23
2019-04-01T09:08:46.705Z,35.30
2019-04-01T09:11:38.234Z,37.53
2019-04-01T09:14:24.893Z,35.43
2019-04-01T09:17:13.048Z,36.00
2019-04-01T09:20:02.953Z,35.05
2019-04-01T09:22:51.584Z,35.60
2019-04-01T09:25:40.331Z,33.95
2019-04-01T09:28:29.062Z,32.88
2019-04-01T09:31:17.446Z,35.15
2019-04-01T09:34:06.176Z,35.28
2019-04-01T09:36:55.322Z,35.03
2019-04-01T09:39:43.586Z,34.43
2019-04-01T09:42:32.312Z,34.18
2019-04-01T09:45:20.682Z,32.75
2019-04-01T09:48:08.966Z,32.90
2019-04-01T09:50:57.591Z,33.50
2019-04-01T09:53:46.333Z,32.37
2019-04-01T09:56:35.498Z,32.42
2019-04-01T09:59:24.049Z,33.95
2019-04-01T10:02:13.390Z,32.90
2019-04-01T10:05:01.782Z,32.10
2019-04-01T10:07:50.667Z,32.57
2019-04-01T10:10:40.541Z,32.50
2019-04-01T10:13:29.684Z,33.00
2019-04-01T10:16:17.990Z,33.50
2019-04-01T10:19:06.727Z,34.67
2019-04-01T10:21:54.995Z,33.83
2019-04-01T10:24:43.684Z,33.45
2019-04-01T10:27:32.325Z,33.75
2019-04-01T10:30:21.608Z,34.30
2019-04-01T10:33:09.911Z,33.00
2019-04-01T10:35:58.808Z,33.85
2019-04-01T10:38:47.846Z,33.10
2019-04-01T10:41:36.809Z,33.63
2019-04-01T10:44:25.587Z,33.18
2019-04-01T10:47:14.300Z,33.98
2019-04-01T10:50:02.992Z,33.35
2019-04-01T10:52:51.822Z,31.90
2019-04-01T10:55:40.442Z,33.23
2019-04-01T10:58:29.199Z,33.92
2019-04-01T11:01:18.278Z,33.65
2019-04-01T11:04:06.754Z,32.45
2019-04-01T11:06:55.315Z,31.35
2019-04-01T11:09:44.397Z,32.75
2019-04-01T11:12:33.107Z,33.63
2019-04-01T11:15:22.186Z,30.97
2019-04-01T11:18:12.018Z,31.85
2019-04-01T11:21:01.391Z,31.77
2019-04-01T11:23:50.653Z,31.00
2019-04-01T11:26:39.942Z,31.07
2019-04-01T11:29:28.646Z,30.77
2019-04-01T11:32:17.825Z,32.15
2019-04-01T11:35:07.227Z,32.30
2019-04-01T11:37:55.690Z,30.27
2019-04-01T11:40:44.382Z,30.35
2019-04-01T11:43:35.459Z,31.12
2019-04-01T11:46:23.231Z,30.88
2019-04-01T11:49:12.623Z,29.98
2019-04-01T11:52:01.447Z,30.65
2019-04-01T11:54:50.150Z,29.90
2019-04-01T11:57:38.687Z,30.30
2019-04-01T12:00:27.823Z,30.40
2019-04-01T12:03:16.807Z,29.23
2019-04-01T12:06:05.629Z,30.10
2019-04-01T12:08:54.123Z,29.70
2019-04-01T12:11:42.831Z,30.00
2019-04-01T12:14:32.293Z,28.70
2019-04-01T12:17:21.165Z,29.92
2019-04-01T12:20:09.905Z,27.70
2019-04-01T12:22:59.150Z,26.50
2019-04-01T12:25:48.526Z,29.70
2019-04-01T12:28:36.885Z,29.02
2019-04-01T12:31:25.979Z,29.85
2019-04-01T12:34:14.484Z,28.25
2019-04-01T12:37:04.726Z,29.18
2019-04-01T12:39:53.391Z,28.40
2019-04-01T12:42:42.357Z,27.85
2019-04-01T12:45:30.848Z,26.80
2019-04-01T12:48:18.926Z,27.35
2019-04-01T12:51:07.386Z,27.85
2019-04-01T12:53:56.449Z,26.00
2019-04-01T12:56:45.448Z,26.50
2019-04-01T12:59:34.289Z,26.33
2019-04-01T13:02:23.508Z,26.65
2019-04-01T13:05:12.075Z,27.13
2019-04-01T13:08:01.555Z,27.50
2019-04-01T13:10:50.827Z,27.93
2019-04-01T13:13:39.135Z,26.85
2019-04-01T13:16:28.094Z,27.52
2019-04-01T13:19:17.176Z,26.30
2019-04-01T13:22:05.984Z,24.18
2019-04-01T13:24:56.667Z,23.65
2019-04-01T13:27:45.557Z,24.00
2019-04-01T13:30:34.320Z,25.37
2019-04-01T13:33:23.278Z,26.20
2019-04-01T13:36:12.454Z,25.50
2019-04-01T13:39:04.086Z,26.68
2019-04-01T13:41:51.766Z,26.42
2019-04-01T13:44:40.600Z,26.57
2019-04-01T13:47:29.997Z,26.82
2019-04-01T13:50:19.091Z,27.52
2019-04-01T13:53:07.688Z,25.10
2019-04-01T13:55:56.712Z,24.23
2019-04-01T13:58:45.761Z,25.55
2019-04-01T14:01:34.939Z,25.55
2019-04-01T14:04:23.788Z,25.10
2019-04-01T14:07:12.666Z,23.92
2019-04-01T14:10:00.954Z,23.47
2019-04-01T14:12:49.398Z,24.43
2019-04-01T14:15:37.698Z,24.10
2019-04-01T14:18:26.071Z,22.80
2019-04-01T14:21:16.545Z,21.50
2019-04-01T14:24:04.772Z,23.35
2019-04-01T14:26:56.484Z,22.65
2019-04-01T14:29:43.406Z,22.93
2019-04-01T14:32:32.548Z,23.55
2019-04-01T14:35:23.865Z,21.97
2019-04-01T14:38:12.854Z,23.02
2019-04-01T14:41:01.347Z,22.10
2019-04-01T14:43:50.260Z,21.68
2019-04-01T14:46:39.237Z,21.52
2019-04-01T14:49:27.744Z,21.17
2019-04-01T14:52:31.179Z,22.10
2019-04-01T14:55:07.530Z,20.80
2019-04-01T14:58:00.164Z,21.50
2019-04-01T15:00:46.532Z,21.10
2019-04-01T15:03:35.663Z,19.70
2019-04-01T15:06:24.272Z,21.20
2019-04-01T15:09:13.714Z,21.10
2019-04-01T15:12:02.232Z,19.55
2019-04-01T15:14:50.861Z,20.23
2019-04-01T15:17:39.952Z,19.73
2019-04-01T15:20:29.032Z,19.73
2019-04-01T15:23:18.176Z,18.80
2019-04-01T15:26:06.552Z,19.97
2019-04-01T15:28:56.405Z,19.93
2019-04-01T15:31:45.473Z,19.35
2019-04-01T15:34:34.888Z,19.80
2019-04-01T15:37:23.756Z,19.65
2019-04-01T15:40:13.701Z,20.40
2019-04-01T15:43:02.588Z,20.75
2019-04-01T15:45:51.445Z,19.35
2019-04-01T15:48:40.389Z,19.42
2019-04-01T15:51:29.293Z,19.98
2019-04-01T15:54:18.106Z,19.45
2019-04-01T15:57:06.282Z,19.55
2019-04-01T15:59:55.095Z,19.50
2019-04-01T16:02:44.056Z,19.25
2019-04-01T16:05:34.232Z,18.80
2019-04-01T16:08:24.291Z,18.80
2019-04-01T16:11:14.126Z,17.87
2019-04-01T16:14:02.874Z,18.07
2019-04-01T16:16:51.599Z,16.97
2019-04-01T16:19:40.256Z,18.15
2019-04-01T16:22:29.284Z,17.55
2019-04-01T16:25:18.291Z,19.70
2019-04-01T16:28:07.141Z,19.17
2019-04-01T16:30:56.260Z,18.30
2019-04-01T16:33:45.782Z,18.67
2019-04-01T16:36:35.129Z,17.55
2019-04-01T16:39:24.487Z,19.50
2019-04-01T16:42:13.217Z,19.07
2019-04-01T16:45:02.233Z,18.75
2019-04-01T16:47:51.575Z,19.23
2019-04-01T16:50:39.866Z,18.70
2019-04-01T16:53:28.941Z,19.33
2019-04-01T16:56:17.874Z,20.12
2019-04-01T16:59:06.649Z,18.32
2019-04-01T17:01:57.717Z,18.42
2019-04-01T17:04:48.227Z,18.93
2019-04-01T17:07:36.827Z,19.60
2019-04-01T17:10:25.533Z,19.67
2019-04-01T17:13:16.236Z,19.27
2019-04-01T17:16:05.143Z,19.35
2019-04-01T17:18:53.756Z,20.08
2019-04-01T17:21:42.768Z,20.37
2019-04-01T17:24:31.905Z,20.02
2019-04-01T17:27:21.132Z,19.50
2019-04-01T17:30:12.130Z,18.92
2019-04-01T17:33:01.579Z,19.30
2019-04-01T17:35:50.443Z,19.52
2019-04-01T17:38:39.535Z,23.40
2019-04-01T17:41:28.774Z,26.25
2019-04-01T17:44:17.162Z,24.02
2019-04-01T17:47:06.326Z,19.35
2019-04-01T17:49:55.638Z,19.35
2019-04-01T17:52:44.603Z,22.97
2019-04-01T17:55:36.212Z,20.80
2019-04-01T17:58:25.135Z,19.95
2019-04-01T18:01:14.001Z,19.27
2019-04-01T18:04:02.861Z,19.87
2019-04-01T18:06:51.602Z,19.63
2019-04-01T18:09:40.285Z,20.13
2019-04-01T18:12:28.975Z,21.27
2019-04-01T18:15:20.619Z,20.97
2019-04-01T18:18:10.080Z,19.20
2019-04-01T18:21:00.281Z,19.45
2019-04-01T18:23:49.536Z,19.60
2019-04-01T18:26:38.343Z,19.20
2019-04-01T18:29:27.627Z,19.65
2019-04-01T18:32:16.898Z,19.80
2019-04-01T18:35:05.891Z,19.37
2019-04-01T18:37:54.838Z,18.27
2019-04-01T18:40:44.081Z,19.40
2019-04-01T18:43:32.886Z,19.07
2019-04-01T18:46:23.219Z,19.55
2019-04-01T18:49:12.459Z,19.80
2019-04-01T18:52:01.885Z,19.55
2019-04-01T18:54:51.115Z,20.62
2019-04-01T18:57:39.219Z,20.12
2019-04-01T19:00:28.192Z,21.30
2019-04-01T19:03:17.363Z,22.50
2019-04-01T19:06:07.347Z,22.48
2019-04-01T19:09:08.674Z,23.22
2019-04-01T19:11:46.627Z,24.07
2019-04-01T19:14:35.357Z,29.00
2019-04-01T19:17:24.401Z,33.53
2019-04-01T19:20:14.247Z,41.95
2019-04-01T19:23:02.875Z,36.05
2019-04-01T19:25:51.471Z,42.55
2019-04-01T19:28:40.709Z,36.83
2019-04-01T19:31:29.588Z,35.10
2019-04-01T19:34:18.671Z,36.15
2019-04-01T19:37:07.661Z,34.05
2019-04-01T19:39:56.801Z,32.07
2019-04-01T19:42:47.264Z,32.95
2019-04-01T19:45:36.590Z,31.82
2019-04-01T19:48:25.960Z,29.72
2019-04-01T19:51:14.756Z,29.57
2019-04-01T19:54:04.192Z,29.03
2019-04-01T19:56:52.803Z,27.27
2019-04-01T19:59:42.077Z,27.25
2019-04-01T20:02:34.065Z,29.70
2019-04-01T20:05:21.164Z,26.13
2019-04-01T20:08:10.497Z,26.20
2019-04-01T20:10:59.729Z,28.05
2019-04-01T20:13:48.288Z,30.77
2019-04-01T20:16:37.299Z,32.98
2019-04-01T20:19:26.473Z,31.12
2019-04-01T20:22:15.004Z,28.75
2019-04-01T20:25:03.267Z,30.15
2019-04-01T20:27:52.354Z,30.40
2019-04-01T20:30:42.700Z,35.78
2019-04-01T20:33:32.047Z,33.88
2019-04-01T20:36:28.400Z,33.80
2019-04-01T20:39:11.637Z,29.10
2019-04-01T20:41:59.997Z,22.53
2019-04-01T20:44:48.854Z,28.95
2019-04-01T20:47:37.604Z,26.17
2019-04-01T20:50:27.218Z,31.65
2019-04-01T20:53:19.006Z,29.70
2019-04-01T20:56:07.543Z,31.93
2019-04-01T20:58:56.667Z,28.05
2019-04-01T21:01:45.348Z,28.10
2019-04-01T21:04:34.154Z,27.48
2019-04-01T21:07:22.646Z,25.37
2019-04-01T21:10:11.259Z,24.65
2019-04-01T21:13:01.019Z,24.20
2019-04-01T21:15:50.146Z,23.30
2019-04-01T21:18:39.011Z,22.50
2019-04-01T21:21:28.230Z,20.72
2019-04-01T21:24:18.294Z,21.33
2019-04-01T21:27:07.003Z,20.40
2019-04-01T21:29:55.619Z,20.48
2019-04-01T21:32:45.321Z,20.30
2019-04-01T21:35:34.899Z,20.10
2019-04-01T21:38:23.728Z,19.90
2019-04-01T21:41:13.009Z,19.15
2019-04-01T21:44:02.123Z,20.35
2019-04-01T21:46:50.756Z,20.08
2019-04-01T21:49:39.357Z,20.02
2019-04-01T21:52:27.962Z,20.68
2019-04-01T21:55:17.331Z,20.08
2019-04-01T21:58:06.397Z,19.80
2019-04-01T22:00:56.450Z,19.40
2019-04-01T22:03:45.301Z,20.12
2019-04-01T22:06:34.216Z,19.55
2019-04-01T22:09:23.007Z,20.20
2019-04-01T22:12:12.057Z,19.37
2019-04-01T22:15:00.639Z,18.75
2019-04-01T22:17:49.318Z,19.48
2019-04-01T22:20:39.362Z,18.30
2019-04-01T22:23:28.455Z,18.30
2019-04-01T22:26:17.292Z,18.23
2019-04-01T22:29:06.295Z,18.05
2019-04-01T22:31:54.847Z,18.65
2019-04-01T22:34:43.262Z,18.43
2019-04-01T22:37:31.807Z,18.43
2019-04-01T22:40:20.756Z,19.32
2019-04-01T22:43:09.423Z,18.80
2019-04-01T22:45:58.324Z,19.57
2019-04-01T22:48:47.419Z,18.90
2019-04-01T22:51:36.435Z,19.30
2019-04-01T22:54:25.683Z,18.60
2019-04-01T22:57:14.439Z,18.67
2019-04-01T23:00:03.101Z,18.90
2019-04-01T23:02:51.309Z,20.15
2019-04-01T23:05:40.064Z,19.50
2019-04-01T23:08:28.431Z,21.07
2019-04-01T23:11:17.303Z,21.17
2019-04-01T23:14:06.020Z,20.90
2019-04-01T23:16:54.400Z,20.75
2019-04-01T23:19:42.747Z,20.75
2019-04-01T23:22:31.513Z,20.37
2019-04-01T23:25:20.358Z,19.50
2019-04-01T23:28:09.008Z,20.80
2019-04-01T23:30:57.915Z,20.23
2019-04-01T23:33:46.519Z,20.43
2019-04-01T23:36:36.155Z,20.10
2019-04-01T23:39:24.785Z,20.17
2019-04-01T23:42:13.573Z,20.10
2019-04-01T23:45:02.085Z,20.05
2019-04-01T23:47:50.305Z,20.20
2019-04-01T23:50:39.305Z,20.08
2019-04-01T23:53:27.531Z,19.77
2019-04-01T23:56:16.163Z,20.95
2019-04-01T23:59:05.145Z,20.62
